Terminal Aerodrome Forecast
Issued by NWS Albuquerque, NM

Home | Current Version | Previous Version | Text Only | Print | Product List | Glossary On
Versions: 1 2 3 4 5 6 7 8 9 10 11 12 13 14 15 16
175
FTUS45 KABQ 260450 AAB
TAFABQ
TAF AMD
KABQ 260450Z 2605/2624 02010KT P6SM VCSH SCT090 BKN140
      TEMPO 2605/2607 VRB20G30KT
     FM260700 11012KT P6SM VCSH SCT100 BKN140
     FM261000 VRB05KT P6SM SCT140
     FM262100 26010KT P6SM SCT090=

USA.gov is the U.S. government's official web portal to all federal, state and local government web resources and services.